sensor_id;sensor_type;location;lat;lon;timestamp;pressure;altitude;pressure_sealevel;temperature;humidity
10462;BME280;5278;42.656;23.374;2022-09-09T00:02:14;94838.63;;;24.41;56.96
10462;BME280;5278;42.656;23.374;2022-09-09T00:04:54;94839.41;;;24.42;57.44
10462;BME280;5278;42.656;23.374;2022-09-09T00:07:31;94837.81;;;24.41;57.21
10462;BME280;5278;42.656;23.374;2022-09-09T00:10:12;94837.50;;;24.32;58.76
10462;BME280;5278;42.656;23.374;2022-09-09T00:12:48;94841.75;;;24.33;59.41
10462;BME280;5278;42.656;23.374;2022-09-09T00:15:19;94835.28;;;24.19;58.78
10462;BME280;5278;42.656;23.374;2022-09-09T00:17:52;94842.31;;;24.35;57.92
10462;BME280;5278;42.656;23.374;2022-09-09T00:20:25;94849.22;;;24.36;57.86
10462;BME280;5278;42.656;23.374;2022-09-09T00:22:59;94834.03;;;24.32;57.74
10462;BME280;5278;42.656;23.374;2022-09-09T00:25:31;94836.72;;;24.37;56.98
10462;BME280;5278;42.656;23.374;2022-09-09T00:28:10;94831.94;;;24.34;57.33
10462;BME280;5278;42.656;23.374;2022-09-09T00:30:40;94818.41;;;24.35;56.97
10462;BME280;5278;42.656;23.374;2022-09-09T00:33:11;94817.28;;;24.31;57.01
10462;BME280;5278;42.656;23.374;2022-09-09T00:35:44;94816.16;;;24.22;57.12
10462;BME280;5278;42.656;23.374;2022-09-09T00:38:13;94811.91;;;24.21;57.16
10462;BME280;5278;42.656;23.374;2022-09-09T00:40:46;94809.69;;;24.13;57.23
10462;BME280;5278;42.656;23.374;2022-09-09T00:43:28;94809.25;;;23.89;58.04
10462;BME280;5278;42.656;23.374;2022-09-09T00:46:09;94798.56;;;23.84;58.41
10462;BME280;5278;42.656;23.374;2022-09-09T00:48:48;94795.22;;;23.67;58.45
10462;BME280;5278;42.656;23.374;2022-09-09T00:51:25;94797.06;;;23.67;58.41
10462;BME280;5278;42.656;23.374;2022-09-09T00:54:23;94800.81;;;23.66;58.72
10462;BME280;5278;42.656;23.374;2022-09-09T00:57:01;94807.44;;;23.68;58.32
10462;BME280;5278;42.656;23.374;2022-09-09T00:59:43;94803.94;;;23.63;58.38
10462;BME280;5278;42.656;23.374;2022-09-09T01:02:18;94803.41;;;23.61;57.91
10462;BME280;5278;42.656;23.374;2022-09-09T01:04:48;94803.66;;;23.59;57.90
10462;BME280;5278;42.656;23.374;2022-09-09T01:07:17;94800.94;;;23.54;57.88
10462;BME280;5278;42.656;23.374;2022-09-09T01:09:56;94798.25;;;23.49;57.50
10462;BME280;5278;42.656;23.374;2022-09-09T01:12:38;94807.41;;;23.41;58.46
10462;BME280;5278;42.656;23.374;2022-09-09T01:15:15;94803.41;;;23.39;58.22
10462;BME280;5278;42.656;23.374;2022-09-09T01:17:53;94810.31;;;23.40;57.67
10462;BME280;5278;42.656;23.374;2022-09-09T01:20:25;94809.47;;;23.34;58.62
10462;BME280;5278;42.656;23.374;2022-09-09T01:23:13;94808.47;;;23.18;58.37
10462;BME280;5278;42.656;23.374;2022-09-09T01:26:16;94813.66;;;23.08;58.00
10462;BME280;5278;42.656;23.374;2022-09-09T01:28:47;94800.97;;;23.10;59.02
10462;BME280;5278;42.656;23.374;2022-09-09T01:31:17;94794.13;;;23.14;58.62
10462;BME280;5278;42.656;23.374;2022-09-09T01:33:45;94804.41;;;22.89;58.85
10462;BME280;5278;42.656;23.374;2022-09-09T01:36:17;94799.88;;;22.68;59.48
10462;BME280;5278;42.656;23.374;2022-09-09T01:38:46;94808.63;;;22.68;61.24
10462;BME280;5278;42.656;23.374;2022-09-09T01:41:12;94813.47;;;22.93;60.36
10462;BME280;5278;42.656;23.374;2022-09-09T01:43:41;94821.06;;;23.06;60.15
10462;BME280;5278;42.656;23.374;2022-09-09T01:46:08;94823.28;;;23.14;60.20
10462;BME280;5278;42.656;23.374;2022-09-09T01:48:34;94820.66;;;23.14;59.74
10462;BME280;5278;42.656;23.374;2022-09-09T01:51:01;94815.50;;;23.30;59.30
10462;BME280;5278;42.656;23.374;2022-09-09T01:53:28;94820.19;;;23.44;58.78
10462;BME280;5278;42.656;23.374;2022-09-09T01:56:05;94821.59;;;23.52;58.64
10462;BME280;5278;42.656;23.374;2022-09-09T01:58:48;94824.31;;;23.57;59.26
10462;BME280;5278;42.656;23.374;2022-09-09T02:01:24;94827.38;;;23.71;59.15
10462;BME280;5278;42.656;23.374;2022-09-09T02:03:56;94819.19;;;23.77;59.00
10462;BME280;5278;42.656;23.374;2022-09-09T02:06:27;94821.09;;;23.82;59.06
10462;BME280;5278;42.656;23.374;2022-09-09T02:08:57;94817.16;;;23.84;58.32
10462;BME280;5278;42.656;23.374;2022-09-09T02:11:27;94813.41;;;23.80;58.92
10462;BME280;5278;42.656;23.374;2022-09-09T02:13:59;94817.59;;;23.76;58.81
10462;BME280;5278;42.656;23.374;2022-09-09T02:16:32;94815.31;;;23.85;58.83
10462;BME280;5278;42.656;23.374;2022-09-09T02:19:06;94803.38;;;23.87;57.83
10462;BME280;5278;42.656;23.374;2022-09-09T02:21:36;94802.44;;;23.72;58.18
10462;BME280;5278;42.656;23.374;2022-09-09T02:24:05;94803.75;;;23.69;57.96
10462;BME280;5278;42.656;23.374;2022-09-09T02:26:36;94792.63;;;23.72;57.65
10462;BME280;5278;42.656;23.374;2022-09-09T02:29:11;94797.44;;;23.75;57.20
10462;BME280;5278;42.656;23.374;2022-09-09T02:31:43;94800.44;;;23.84;57.02
10462;BME280;5278;42.656;23.374;2022-09-09T02:34:13;94799.75;;;23.98;56.69
10462;BME280;5278;42.656;23.374;2022-09-09T02:36:42;94807.19;;;24.01;56.07
10462;BME280;5278;42.656;23.374;2022-09-09T02:39:12;94804.88;;;24.05;56.05
10462;BME280;5278;42.656;23.374;2022-09-09T02:41:41;94804.31;;;24.03;56.55
10462;BME280;5278;42.656;23.374;2022-09-09T02:44:12;94816.53;;;24.04;56.03
10462;BME280;5278;42.656;23.374;2022-09-09T02:46:53;94814.94;;;24.03;56.13
10462;BME280;5278;42.656;23.374;2022-09-09T02:49:28;94818.78;;;23.85;56.45
10462;BME280;5278;42.656;23.374;2022-09-09T02:52:01;94823.22;;;23.80;56.76
10462;BME280;5278;42.656;23.374;2022-09-09T02:54:30;94827.13;;;23.72;57.43
10462;BME280;5278;42.656;23.374;2022-09-09T02:57:02;94831.91;;;23.70;57.67
10462;BME280;5278;42.656;23.374;2022-09-09T02:59:32;94821.97;;;23.61;58.96
10462;BME280;5278;42.656;23.374;2022-09-09T03:01:59;94819.31;;;23.61;58.62
10462;BME280;5278;42.656;23.374;2022-09-09T03:04:26;94819.66;;;23.69;59.00
10462;BME280;5278;42.656;23.374;2022-09-09T03:06:53;94822.31;;;23.69;58.32
10462;BME280;5278;42.656;23.374;2022-09-09T03:09:20;94820.16;;;23.66;58.48
10462;BME280;5278;42.656;23.374;2022-09-09T03:11:47;94824.69;;;23.66;58.41
10462;BME280;5278;42.656;23.374;2022-09-09T03:14:14;94820.66;;;23.63;58.61
10462;BME280;5278;42.656;23.374;2022-09-09T03:16:43;94829.47;;;23.69;57.94
10462;BME280;5278;42.656;23.374;2022-09-09T03:19:10;94825.72;;;23.65;58.19
10462;BME280;5278;42.656;23.374;2022-09-09T03:21:36;94826.09;;;23.51;58.87
10462;BME280;5278;42.656;23.374;2022-09-09T03:24:04;94822.97;;;23.54;58.46
10462;BME280;5278;42.656;23.374;2022-09-09T03:26:32;94820.03;;;23.51;58.78
10462;BME280;5278;42.656;23.374;2022-09-09T03:28:59;94819.50;;;23.32;59.24
10462;BME280;5278;42.656;23.374;2022-09-09T03:31:27;94813.44;;;23.37;58.99
10462;BME280;5278;42.656;23.374;2022-09-09T03:33:57;94823.25;;;23.36;59.13
10462;BME280;5278;42.656;23.374;2022-09-09T03:36:25;94826.38;;;23.50;59.13
10462;BME280;5278;42.656;23.374;2022-09-09T03:38:53;94825.88;;;23.53;58.95
10462;BME280;5278;42.656;23.374;2022-09-09T03:41:21;94823.66;;;23.45;59.21
10462;BME280;5278;42.656;23.374;2022-09-09T03:43:49;94822.63;;;23.46;59.53
10462;BME280;5278;42.656;23.374;2022-09-09T03:46:16;94829.38;;;23.37;60.04
10462;BME280;5278;42.656;23.374;2022-09-09T03:48:43;94818.81;;;23.42;59.52
10462;BME280;5278;42.656;23.374;2022-09-09T03:51:11;94825.72;;;23.43;59.48
10462;BME280;5278;42.656;23.374;2022-09-09T03:53:38;94825.72;;;23.43;60.39
10462;BME280;5278;42.656;23.374;2022-09-09T03:56:06;94823.59;;;23.40;60.75
10462;BME280;5278;42.656;23.374;2022-09-09T03:58:34;94828.97;;;23.45;60.25
10462;BME280;5278;42.656;23.374;2022-09-09T04:01:04;94830.88;;;23.49;59.61
10462;BME280;5278;42.656;23.374;2022-09-09T04:03:31;94826.84;;;23.47;60.12
10462;BME280;5278;42.656;23.374;2022-09-09T04:05:59;94827.41;;;23.49;59.68
10462;BME280;5278;42.656;23.374;2022-09-09T04:08:29;94839.13;;;23.53;59.59
10462;BME280;5278;42.656;23.374;2022-09-09T04:10:57;94833.63;;;23.59;59.53
10462;BME280;5278;42.656;23.374;2022-09-09T04:13:24;94838.44;;;23.63;59.34
10462;BME280;5278;42.656;23.374;2022-09-09T04:15:51;94829.19;;;23.65;58.87
10462;BME280;5278;42.656;23.374;2022-09-09T04:18:19;94829.28;;;23.75;58.70
10462;BME280;5278;42.656;23.374;2022-09-09T04:20:46;94824.28;;;23.79;58.76
10462;BME280;5278;42.656;23.374;2022-09-09T04:23:14;94828.25;;;23.81;58.52
10462;BME280;5278;42.656;23.374;2022-09-09T04:25:45;94829.88;;;23.82;58.61
10462;BME280;5278;42.656;23.374;2022-09-09T04:28:12;94829.69;;;23.89;58.69
10462;BME280;5278;42.656;23.374;2022-09-09T04:30:39;94828.69;;;23.95;58.11
10462;BME280;5278;42.656;23.374;2022-09-09T04:33:06;94835.88;;;23.99;58.49
10462;BME280;5278;42.656;23.374;2022-09-09T04:35:33;94833.50;;;24.03;57.78
10462;BME280;5278;42.656;23.374;2022-09-09T04:38:02;94837.56;;;24.11;57.51
10462;BME280;5278;42.656;23.374;2022-09-09T04:40:29;94830.22;;;24.18;57.50
10462;BME280;5278;42.656;23.374;2022-09-09T04:42:59;94836.66;;;24.27;57.77
10462;BME280;5278;42.656;23.374;2022-09-09T04:45:26;94844.25;;;24.45;57.77
10462;BME280;5278;42.656;23.374;2022-09-09T04:47:54;94846.97;;;24.55;57.94
10462;BME280;5278;42.656;23.374;2022-09-09T04:50:20;94842.19;;;24.57;57.42
10462;BME280;5278;42.656;23.374;2022-09-09T04:52:47;94829.38;;;24.49;56.95
10462;BME280;5278;42.656;23.374;2022-09-09T04:55:14;94824.06;;;24.49;57.99
10462;BME280;5278;42.656;23.374;2022-09-09T04:57:41;94826.66;;;24.39;57.94
10462;BME280;5278;42.656;23.374;2022-09-09T05:00:11;94816.56;;;24.41;57.50
10462;BME280;5278;42.656;23.374;2022-09-09T05:02:39;94821.78;;;24.26;56.96
10462;BME280;5278;42.656;23.374;2022-09-09T05:05:08;94808.97;;;24.18;56.64
10462;BME280;5278;42.656;23.374;2022-09-09T05:07:36;94834.81;;;24.64;55.48
10462;BME280;5278;42.656;23.374;2022-09-09T05:10:04;94820.66;;;25.01;53.79
10462;BME280;5278;42.656;23.374;2022-09-09T05:12:32;94801.34;;;25.30;52.31
10462;BME280;5278;42.656;23.374;2022-09-09T05:14:58;94804.28;;;25.24;51.32
10462;BME280;5278;42.656;23.374;2022-09-09T05:17:27;94807.22;;;25.27;51.71
10462;BME280;5278;42.656;23.374;2022-09-09T05:19:54;94816.56;;;25.35;52.04
10462;BME280;5278;42.656;23.374;2022-09-09T05:22:21;94825.56;;;25.24;52.22
10462;BME280;5278;42.656;23.374;2022-09-09T05:24:48;94803.53;;;25.49;50.40
10462;BME280;5278;42.656;23.374;2022-09-09T05:27:16;94797.50;;;25.74;49.79
10462;BME280;5278;42.656;23.374;2022-09-09T05:29:43;94797.53;;;25.89;48.60
10462;BME280;5278;42.656;23.374;2022-09-09T05:32:10;94804.16;;;26.01;48.25
10462;BME280;5278;42.656;23.374;2022-09-09T05:34:38;94797.25;;;26.05;47.49
10462;BME280;5278;42.656;23.374;2022-09-09T05:37:05;94792.47;;;26.28;47.99
10462;BME280;5278;42.656;23.374;2022-09-09T05:39:33;94792.91;;;26.75;46.92
10462;BME280;5278;42.656;23.374;2022-09-09T05:42:01;94801.28;;;27.33;45.06
10462;BME280;5278;42.656;23.374;2022-09-09T05:44:30;94794.97;;;27.73;44.67
10462;BME280;5278;42.656;23.374;2022-09-09T05:46:56;94768.53;;;28.05;42.96
10462;BME280;5278;42.656;23.374;2022-09-09T05:49:24;94799.53;;;28.69;41.33
10462;BME280;5278;42.656;23.374;2022-09-09T05:51:52;94780.91;;;28.88;39.86
10462;BME280;5278;42.656;23.374;2022-09-09T05:54:19;94818.38;;;29.54;38.80
10462;BME280;5278;42.656;23.374;2022-09-09T05:56:46;94799.09;;;29.94;37.69
10462;BME280;5278;42.656;23.374;2022-09-09T05:59:15;94804.50;;;30.27;37.08
10462;BME280;5278;42.656;23.374;2022-09-09T06:01:41;94803.13;;;30.62;36.48
10462;BME280;5278;42.656;23.374;2022-09-09T06:04:09;94808.47;;;31.08;35.76
10462;BME280;5278;42.656;23.374;2022-09-09T06:06:37;94813.81;;;31.35;35.49
10462;BME280;5278;42.656;23.374;2022-09-09T06:09:08;94816.81;;;31.47;35.04
10462;BME280;5278;42.656;23.374;2022-09-09T06:11:38;94825.75;;;31.70;34.76
10462;BME280;5278;42.656;23.374;2022-09-09T06:14:05;94818.59;;;32.01;34.12
10462;BME280;5278;42.656;23.374;2022-09-09T06:16:33;94817.84;;;32.10;34.17
10462;BME280;5278;42.656;23.374;2022-09-09T06:19:03;94813.06;;;32.20;33.66
10462;BME280;5278;42.656;23.374;2022-09-09T06:21:31;94814.53;;;32.26;32.95
10462;BME280;5278;42.656;23.374;2022-09-09T06:23:59;94819.78;;;32.54;32.98
10462;BME280;5278;42.656;23.374;2022-09-09T06:26:29;94817.69;;;32.73;32.51
10462;BME280;5278;42.656;23.374;2022-09-09T06:28:56;94824.53;;;32.79;32.37
10462;BME280;5278;42.656;23.374;2022-09-09T06:31:25;94821.53;;;32.72;32.31
10462;BME280;5278;42.656;23.374;2022-09-09T06:33:53;94825.09;;;32.98;32.00
10462;BME280;5278;42.656;23.374;2022-09-09T06:36:22;94815.13;;;33.29;31.48
10462;BME280;5278;42.656;23.374;2022-09-09T06:38:49;94799.13;;;33.33;31.22
10462;BME280;5278;42.656;23.374;2022-09-09T06:41:17;94807.94;;;33.73;30.59
10462;BME280;5278;42.656;23.374;2022-09-09T06:43:46;94812.72;;;33.93;30.46
10462;BME280;5278;42.656;23.374;2022-09-09T06:46:15;94809.72;;;34.03;30.82
10462;BME280;5278;42.656;23.374;2022-09-09T06:48:43;94803.25;;;34.22;29.79
10462;BME280;5278;42.656;23.374;2022-09-09T06:51:13;94805.78;;;34.27;28.96
10462;BME280;5278;42.656;23.374;2022-09-09T06:53:41;94815.22;;;34.67;28.83
10462;BME280;5278;42.656;23.374;2022-09-09T06:56:20;94809.09;;;35.05;28.21
10462;BME280;5278;42.656;23.374;2022-09-09T06:58:50;94822.75;;;35.17;27.75
10462;BME280;5278;42.656;23.374;2022-09-09T07:01:19;94822.59;;;35.51;27.39
10462;BME280;5278;42.656;23.374;2022-09-09T07:03:48;94817.50;;;35.79;26.40
10462;BME280;5278;42.656;23.374;2022-09-09T07:06:19;94822.06;;;36.08;26.54
10462;BME280;5278;42.656;23.374;2022-09-09T07:08:49;94824.56;;;36.21;26.61
10462;BME280;5278;42.656;23.374;2022-09-09T07:11:17;94826.78;;;36.40;25.79
10462;BME280;5278;42.656;23.374;2022-09-09T07:13:44;94823.56;;;36.59;26.05
10462;BME280;5278;42.656;23.374;2022-09-09T07:16:15;94810.72;;;36.35;25.47
10462;BME280;5278;42.656;23.374;2022-09-09T07:18:42;94806.72;;;36.53;25.00
10462;BME280;5278;42.656;23.374;2022-09-09T07:21:10;94815.19;;;36.85;24.62
10462;BME280;5278;42.656;23.374;2022-09-09T07:23:38;94817.75;;;37.14;24.97
10462;BME280;5278;42.656;23.374;2022-09-09T07:26:08;94818.56;;;37.51;24.46
10462;BME280;5278;42.656;23.374;2022-09-09T07:28:36;94806.03;;;37.71;24.01
10462;BME280;5278;42.656;23.374;2022-09-09T07:31:03;94813.97;;;38.16;23.67
10462;BME280;5278;42.656;23.374;2022-09-09T07:33:34;94809.53;;;38.23;23.15
10462;BME280;5278;42.656;23.374;2022-09-09T07:36:03;94807.84;;;38.19;23.45
10462;BME280;5278;42.656;23.374;2022-09-09T07:38:31;94807.94;;;38.22;23.72
10462;BME280;5278;42.656;23.374;2022-09-09T07:41:03;94798.50;;;38.44;22.82
10462;BME280;5278;42.656;23.374;2022-09-09T07:43:31;94798.81;;;38.70;22.70
10462;BME280;5278;42.656;23.374;2022-09-09T07:45:59;94816.34;;;38.73;22.79
10462;BME280;5278;42.656;23.374;2022-09-09T07:48:27;94816.97;;;39.10;22.40
10462;BME280;5278;42.656;23.374;2022-09-09T07:51:05;94810.13;;;39.47;22.05
10462;BME280;5278;42.656;23.374;2022-09-09T07:53:33;94814.19;;;39.73;21.82
10462;BME280;5278;42.656;23.374;2022-09-09T07:56:06;94805.75;;;39.93;21.30
10462;BME280;5278;42.656;23.374;2022-09-09T07:58:35;94806.06;;;40.46;20.60
10462;BME280;5278;42.656;23.374;2022-09-09T08:01:06;94804.03;;;40.81;20.32
10462;BME280;5278;42.656;23.374;2022-09-09T08:03:34;94796.22;;;41.25;20.10
10462;BME280;5278;42.656;23.374;2022-09-09T08:06:01;94801.81;;;41.33;19.13
10462;BME280;5278;42.656;23.374;2022-09-09T08:08:30;94799.81;;;40.84;20.26
10462;BME280;5278;42.656;23.374;2022-09-09T08:11:04;94809.88;;;40.22;20.55
10462;BME280;5278;42.656;23.374;2022-09-09T08:13:33;94807.72;;;39.62;21.32
10462;BME280;5278;42.656;23.374;2022-09-09T08:16:06;94813.44;;;38.66;21.75
10462;BME280;5278;42.656;23.374;2022-09-09T08:18:33;94810.75;;;37.86;23.17
10462;BME280;5278;42.656;23.374;2022-09-09T08:21:09;94805.91;;;37.67;23.20
10462;BME280;5278;42.656;23.374;2022-09-09T08:23:38;94807.00;;;37.90;23.22
10462;BME280;5278;42.656;23.374;2022-09-09T08:26:08;94804.78;;;38.20;23.01
10462;BME280;5278;42.656;23.374;2022-09-09T08:28:36;94802.81;;;38.61;22.76
10462;BME280;5278;42.656;23.374;2022-09-09T08:31:08;94798.25;;;38.93;22.27
10462;BME280;5278;42.656;23.374;2022-09-09T08:33:35;94804.09;;;38.51;22.51
10462;BME280;5278;42.656;23.374;2022-09-09T08:36:04;94798.94;;;37.94;23.04
10462;BME280;5278;42.656;23.374;2022-09-09T08:38:31;94801.59;;;37.42;23.89
10462;BME280;5278;42.656;23.374;2022-09-09T08:41:07;94797.88;;;37.10;24.23
10462;BME280;5278;42.656;23.374;2022-09-09T08:43:40;94803.31;;;36.77;25.03
10462;BME280;5278;42.656;23.374;2022-09-09T08:46:11;94794.56;;;36.27;25.05
10462;BME280;5278;42.656;23.374;2022-09-09T08:48:48;94785.16;;;35.62;26.58
10462;BME280;5278;42.656;23.374;2022-09-09T08:51:19;94795.50;;;35.30;27.15
10462;BME280;5278;42.656;23.374;2022-09-09T08:53:48;94789.25;;;35.01;26.98
10462;BME280;5278;42.656;23.374;2022-09-09T08:56:20;94792.97;;;34.79;27.52
10462;BME280;5278;42.656;23.374;2022-09-09T08:58:49;94788.16;;;35.02;27.33
10462;BME280;5278;42.656;23.374;2022-09-09T09:01:35;94776.97;;;35.12;27.31
10462;BME280;5278;42.656;23.374;2022-09-09T09:04:26;94786.66;;;35.21;26.80
10462;BME280;5278;42.656;23.374;2022-09-09T09:07:03;94796.25;;;35.39;26.83
10462;BME280;5278;42.656;23.374;2022-09-09T09:09:39;94790.69;;;35.65;26.53
10462;BME280;5278;42.656;23.374;2022-09-09T09:12:15;94787.38;;;35.60;26.17
10462;BME280;5278;42.656;23.374;2022-09-09T09:14:46;94787.63;;;35.75;25.99
10462;BME280;5278;42.656;23.374;2022-09-09T09:17:14;94782.56;;;35.65;25.85
10462;BME280;5278;42.656;23.374;2022-09-09T09:19:43;94787.88;;;36.90;25.35
10462;BME280;5278;42.656;23.374;2022-09-09T09:22:17;94780.09;;;37.73;24.20
10462;BME280;5278;42.656;23.374;2022-09-09T09:24:51;94782.50;;;37.50;24.25
10462;BME280;5278;42.656;23.374;2022-09-09T09:27:26;94780.66;;;36.94;24.68
10462;BME280;5278;42.656;23.374;2022-09-09T09:29:58;94758.50;;;36.14;25.35
10462;BME280;5278;42.656;23.374;2022-09-09T09:32:28;94778.03;;;35.78;26.31
10462;BME280;5278;42.656;23.374;2022-09-09T09:34:58;94784.56;;;35.27;26.83
10462;BME280;5278;42.656;23.374;2022-09-09T09:37:29;94786.78;;;34.87;27.42
10462;BME280;5278;42.656;23.374;2022-09-09T09:40:07;94790.31;;;34.62;27.81
10462;BME280;5278;42.656;23.374;2022-09-09T09:42:37;94751.44;;;34.28;28.77
10462;BME280;5278;42.656;23.374;2022-09-09T09:45:08;94780.41;;;34.91;28.27
10462;BME280;5278;42.656;23.374;2022-09-09T09:47:41;94778.13;;;35.90;26.80
10462;BME280;5278;42.656;23.374;2022-09-09T09:50:16;94760.34;;;37.24;25.05
10462;BME280;5278;42.656;23.374;2022-09-09T09:52:53;94759.81;;;37.95;24.20
10462;BME280;5278;42.656;23.374;2022-09-09T09:55:22;94758.91;;;38.03;24.34
10462;BME280;5278;42.656;23.374;2022-09-09T09:57:51;94755.59;;;37.58;24.79
10462;BME280;5278;42.656;23.374;2022-09-09T10:00:20;94761.56;;;37.02;25.68
10462;BME280;5278;42.656;23.374;2022-09-09T10:02:48;94742.38;;;36.50;26.02
10462;BME280;5278;42.656;23.374;2022-09-09T10:05:19;94727.88;;;36.34;26.13
10462;BME280;5278;42.656;23.374;2022-09-09T10:07:47;94741.97;;;36.60;26.48
10462;BME280;5278;42.656;23.374;2022-09-09T10:10:19;94749.00;;;36.74;26.15
10462;BME280;5278;42.656;23.374;2022-09-09T10:12:57;94755.50;;;36.60;26.04
10462;BME280;5278;42.656;23.374;2022-09-09T10:15:33;94766.03;;;36.29;26.22
10462;BME280;5278;42.656;23.374;2022-09-09T10:18:13;94760.91;;;35.45;27.24
10462;BME280;5278;42.656;23.374;2022-09-09T10:20:47;94770.13;;;34.76;27.90
10462;BME280;5278;42.656;23.374;2022-09-09T10:23:29;94772.59;;;34.26;28.86
10462;BME280;5278;42.656;23.374;2022-09-09T10:26:21;94779.09;;;33.82;29.90
10462;BME280;5278;42.656;23.374;2022-09-09T10:29:19;94776.13;;;33.36;30.74
10462;BME280;5278;42.656;23.374;2022-09-09T10:32:00;94767.13;;;32.92;31.49
10462;BME280;5278;42.656;23.374;2022-09-09T10:34:55;94771.78;;;32.78;32.46
10462;BME280;5278;42.656;23.374;2022-09-09T10:37:36;94776.47;;;32.64;32.45
10462;BME280;5278;42.656;23.374;2022-09-09T10:40:26;94774.63;;;32.51;32.14
10462;BME280;5278;42.656;23.374;2022-09-09T10:43:01;94770.16;;;32.37;32.19
10462;BME280;5278;42.656;23.374;2022-09-09T10:45:41;94773.50;;;32.21;32.98
10462;BME280;5278;42.656;23.374;2022-09-09T10:48:27;94768.25;;;31.80;33.39
10462;BME280;5278;42.656;23.374;2022-09-09T10:53:52;94781.75;;;31.52;34.37
10462;BME280;5278;42.656;23.374;2022-09-09T10:56:22;94781.97;;;31.42;35.15
10462;BME280;5278;42.656;23.374;2022-09-09T10:58:52;94771.44;;;31.32;35.17
10462;BME280;5278;42.656;23.374;2022-09-09T11:01:24;94750.19;;;31.08;34.92
10462;BME280;5278;42.656;23.374;2022-09-09T11:03:54;94775.53;;;31.16;35.20
10462;BME280;5278;42.656;23.374;2022-09-09T11:06:29;94773.94;;;31.15;35.53
10462;BME280;5278;42.656;23.374;2022-09-09T11:08:59;94768.94;;;30.95;36.24
10462;BME280;5278;42.656;23.374;2022-09-09T11:11:34;94773.50;;;30.81;36.84
10462;BME280;5278;42.656;23.374;2022-09-09T11:14:08;94772.53;;;30.76;36.63
10462;BME280;5278;42.656;23.374;2022-09-09T11:16:41;94781.47;;;30.72;36.44
10462;BME280;5278;42.656;23.374;2022-09-09T11:19:16;94779.75;;;30.62;37.18
10462;BME280;5278;42.656;23.374;2022-09-09T11:21:48;94772.88;;;30.56;37.54
10462;BME280;5278;42.656;23.374;2022-09-09T11:24:20;94758.25;;;30.49;37.09
10462;BME280;5278;42.656;23.374;2022-09-09T11:26:53;94759.28;;;30.53;37.34
10462;BME280;5278;42.656;23.374;2022-09-09T11:32:47;94754.34;;;30.87;36.78
10462;BME280;5278;42.656;23.374;2022-09-09T11:35:29;94755.66;;;31.03;35.76
10462;BME280;5278;42.656;23.374;2022-09-09T11:38:27;94738.50;;;30.99;36.43
10462;BME280;5278;42.656;23.374;2022-09-09T11:40:57;94738.75;;;31.03;36.78
10462;BME280;5278;42.656;23.374;2022-09-09T11:43:31;94724.38;;;30.94;36.80
10462;BME280;5278;42.656;23.374;2022-09-09T11:46:01;94727.25;;;30.84;36.87
10462;BME280;5278;42.656;23.374;2022-09-09T11:48:32;94721.50;;;30.76;36.76
10462;BME280;5278;42.656;23.374;2022-09-09T11:51:02;94713.56;;;30.71;36.94
10462;BME280;5278;42.656;23.374;2022-09-09T11:53:31;94674.50;;;30.65;37.02
10462;BME280;5278;42.656;23.374;2022-09-09T11:56:03;94683.03;;;30.81;36.83
10462;BME280;5278;42.656;23.374;2022-09-09T11:58:39;94686.81;;;30.80;37.12
10462;BME280;5278;42.656;23.374;2022-09-09T12:01:15;94664.75;;;30.69;37.41
10462;BME280;5278;42.656;23.374;2022-09-09T12:03:46;94697.72;;;30.84;36.85
10462;BME280;5278;42.656;23.374;2022-09-09T12:06:16;94688.91;;;30.83;36.89
10462;BME280;5278;42.656;23.374;2022-09-09T12:08:48;94701.84;;;31.08;36.58
10462;BME280;5278;42.656;23.374;2022-09-09T12:11:26;94694.00;;;31.34;36.39
10462;BME280;5278;42.656;23.374;2022-09-09T12:13:54;94692.25;;;31.66;35.57
10462;BME280;5278;42.656;23.374;2022-09-09T12:16:31;94684.78;;;31.85;35.50
10462;BME280;5278;42.656;23.374;2022-09-09T12:19:14;94673.69;;;31.78;35.73
10462;BME280;5278;42.656;23.374;2022-09-09T12:21:48;94682.28;;;31.88;35.62
10462;BME280;5278;42.656;23.374;2022-09-09T12:24:23;94679.88;;;32.09;35.00
10462;BME280;5278;42.656;23.374;2022-09-09T12:26:58;94673.22;;;32.07;34.72
10462;BME280;5278;42.656;23.374;2022-09-09T12:29:35;94677.50;;;32.08;34.76
10462;BME280;5278;42.656;23.374;2022-09-09T12:32:06;94673.66;;;32.22;34.93
10462;BME280;5278;42.656;23.374;2022-09-09T12:34:39;94668.34;;;32.39;34.61
10462;BME280;5278;42.656;23.374;2022-09-09T12:37:14;94656.84;;;32.47;34.33
10462;BME280;5278;42.656;23.374;2022-09-09T12:39:45;94660.56;;;32.69;34.49
10462;BME280;5278;42.656;23.374;2022-09-09T12:42:19;94653.28;;;32.69;34.58
10462;BME280;5278;42.656;23.374;2022-09-09T12:44:54;94636.50;;;32.33;35.02
10462;BME280;5278;42.656;23.374;2022-09-09T12:47:25;94649.91;;;32.24;35.78
10462;BME280;5278;42.656;23.374;2022-09-09T12:49:56;94655.88;;;32.13;36.40
10462;BME280;5278;42.656;23.374;2022-09-09T12:52:26;94637.22;;;31.94;35.87
10462;BME280;5278;42.656;23.374;2022-09-09T12:54:56;94652.06;;;32.14;36.08
10462;BME280;5278;42.656;23.374;2022-09-09T12:57:25;94652.41;;;32.12;35.82
10462;BME280;5278;42.656;23.374;2022-09-09T13:00:05;94646.72;;;31.91;35.67
10462;BME280;5278;42.656;23.374;2022-09-09T13:02:32;94596.78;;;31.54;35.24
10462;BME280;5278;42.656;23.374;2022-09-09T13:05:13;94632.22;;;32.01;35.45
10462;BME280;5278;42.656;23.374;2022-09-09T13:07:41;94634.25;;;32.26;34.95
10462;BME280;5278;42.656;23.374;2022-09-09T13:10:11;94593.53;;;32.19;35.14
10462;BME280;5278;42.656;23.374;2022-09-09T13:12:39;94628.47;;;32.41;35.19
10462;BME280;5278;42.656;23.374;2022-09-09T13:15:19;94626.25;;;32.43;35.36
10462;BME280;5278;42.656;23.374;2022-09-09T13:17:53;94630.06;;;32.42;34.98
10462;BME280;5278;42.656;23.374;2022-09-09T13:20:23;94567.03;;;32.04;34.72
10462;BME280;5278;42.656;23.374;2022-09-09T13:22:53;94626.91;;;32.49;34.84
10462;BME280;5278;42.656;23.374;2022-09-09T13:25:23;94631.34;;;32.54;35.34
10462;BME280;5278;42.656;23.374;2022-09-09T13:27:56;94623.13;;;32.59;35.43
10462;BME280;5278;42.656;23.374;2022-09-09T13:30:26;94611.63;;;32.67;35.16